sensor_id;sensor_type;location;lat;lon;timestamp;P1;durP1;ratioP1;P2;durP2;ratioP2
14326;SDS011;7247;53.330;-1.180;2023-06-14T00:00:20;10.30;;;5.73;;
14326;SDS011;7247;53.330;-1.180;2023-06-14T00:02:48;7.97;;;5.20;;
14326;SDS011;7247;53.330;-1.180;2023-06-14T00:05:15;13.13;;;6.03;;
14326;SDS011;7247;53.330;-1.180;2023-06-14T00:07:41;9.00;;;5.67;;
14326;SDS011;7247;53.330;-1.180;2023-06-14T00:10:08;9.53;;;5.67;;
14326;SDS011;7247;53.330;-1.180;2023-06-14T00:12:35;10.90;;;6.20;;
14326;SDS011;7247;53.330;-1.180;2023-06-14T00:15:02;10.70;;;6.20;;
14326;SDS011;7247;53.330;-1.180;2023-06-14T00:17:29;10.67;;;6.27;;
14326;SDS011;7247;53.330;-1.180;2023-06-14T00:19:57;9.87;;;6.03;;
14326;SDS011;7247;53.330;-1.180;2023-06-14T00:22:24;14.93;;;6.43;;
14326;SDS011;7247;53.330;-1.180;2023-06-14T00:24:50;10.60;;;6.43;;
14326;SDS011;7247;53.330;-1.180;2023-06-14T00:27:17;13.03;;;6.77;;
14326;SDS011;7247;53.330;-1.180;2023-06-14T00:29:43;10.43;;;6.27;;
14326;SDS011;7247;53.330;-1.180;2023-06-14T00:32:10;8.27;;;6.30;;
14326;SDS011;7247;53.330;-1.180;2023-06-14T00:34:36;14.00;;;6.07;;
14326;SDS011;7247;53.330;-1.180;2023-06-14T00:37:04;11.37;;;6.40;;
14326;SDS011;7247;53.330;-1.180;2023-06-14T00:39:31;13.30;;;6.30;;
14326;SDS011;7247;53.330;-1.180;2023-06-14T00:41:57;11.60;;;7.10;;
14326;SDS011;7247;53.330;-1.180;2023-06-14T00:44:24;8.03;;;6.67;;
14326;SDS011;7247;53.330;-1.180;2023-06-14T00:46:50;14.97;;;6.70;;
14326;SDS011;7247;53.330;-1.180;2023-06-14T00:49:17;14.13;;;7.80;;
14326;SDS011;7247;53.330;-1.180;2023-06-14T00:51:44;12.43;;;7.80;;
14326;SDS011;7247;53.330;-1.180;2023-06-14T00:54:12;12.47;;;7.80;;
14326;SDS011;7247;53.330;-1.180;2023-06-14T00:56:38;11.93;;;8.00;;
14326;SDS011;7247;53.330;-1.180;2023-06-14T00:59:05;14.60;;;8.03;;
14326;SDS011;7247;53.330;-1.180;2023-06-14T01:01:31;11.27;;;8.30;;
14326;SDS011;7247;53.330;-1.180;2023-06-14T01:03:58;10.93;;;8.30;;
14326;SDS011;7247;53.330;-1.180;2023-06-14T01:06:28;13.80;;;8.87;;
14326;SDS011;7247;53.330;-1.180;2023-06-14T01:09:04;12.83;;;8.83;;
14326;SDS011;7247;53.330;-1.180;2023-06-14T01:11:38;17.73;;;8.60;;
14326;SDS011;7247;53.330;-1.180;2023-06-14T01:14:07;16.07;;;9.07;;
14326;SDS011;7247;53.330;-1.180;2023-06-14T01:16:34;11.97;;;8.37;;
14326;SDS011;7247;53.330;-1.180;2023-06-14T01:19:01;11.93;;;9.07;;
14326;SDS011;7247;53.330;-1.180;2023-06-14T01:21:28;14.87;;;8.27;;
14326;SDS011;7247;53.330;-1.180;2023-06-14T01:23:56;17.10;;;8.80;;
14326;SDS011;7247;53.330;-1.180;2023-06-14T01:26:22;12.33;;;8.33;;
14326;SDS011;7247;53.330;-1.180;2023-06-14T01:28:49;14.40;;;9.00;;
14326;SDS011;7247;53.330;-1.180;2023-06-14T01:31:18;11.67;;;8.43;;
14326;SDS011;7247;53.330;-1.180;2023-06-14T01:33:46;10.60;;;7.87;;
14326;SDS011;7247;53.330;-1.180;2023-06-14T01:36:14;12.67;;;8.03;;
14326;SDS011;7247;53.330;-1.180;2023-06-14T01:38:42;15.73;;;7.37;;
14326;SDS011;7247;53.330;-1.180;2023-06-14T01:41:10;11.47;;;7.57;;
14326;SDS011;7247;53.330;-1.180;2023-06-14T01:43:37;11.37;;;7.13;;
14326;SDS011;7247;53.330;-1.180;2023-06-14T01:46:04;8.80;;;6.67;;
14326;SDS011;7247;53.330;-1.180;2023-06-14T01:48:32;11.97;;;7.00;;
14326;SDS011;7247;53.330;-1.180;2023-06-14T01:50:58;12.50;;;7.17;;
14326;SDS011;7247;53.330;-1.180;2023-06-14T01:53:25;10.27;;;6.67;;
14326;SDS011;7247;53.330;-1.180;2023-06-14T01:55:51;10.47;;;6.90;;
14326;SDS011;7247;53.330;-1.180;2023-06-14T01:58:20;11.50;;;7.80;;
14326;SDS011;7247;53.330;-1.180;2023-06-14T02:00:47;9.90;;;7.00;;
14326;SDS011;7247;53.330;-1.180;2023-06-14T02:03:13;10.43;;;7.50;;
14326;SDS011;7247;53.330;-1.180;2023-06-14T02:05:43;14.07;;;7.63;;
14326;SDS011;7247;53.330;-1.180;2023-06-14T02:08:10;12.50;;;7.70;;
14326;SDS011;7247;53.330;-1.180;2023-06-14T02:10:36;10.77;;;7.63;;
14326;SDS011;7247;53.330;-1.180;2023-06-14T02:13:03;15.07;;;8.27;;
14326;SDS011;7247;53.330;-1.180;2023-06-14T02:15:31;12.43;;;8.00;;
14326;SDS011;7247;53.330;-1.180;2023-06-14T02:17:59;11.77;;;6.83;;
14326;SDS011;7247;53.330;-1.180;2023-06-14T02:20:25;10.70;;;7.23;;
14326;SDS011;7247;53.330;-1.180;2023-06-14T02:22:52;10.30;;;7.57;;
14326;SDS011;7247;53.330;-1.180;2023-06-14T02:25:18;10.53;;;7.60;;
14326;SDS011;7247;53.330;-1.180;2023-06-14T02:27:44;16.70;;;7.83;;
14326;SDS011;7247;53.330;-1.180;2023-06-14T02:30:11;13.03;;;8.10;;
14326;SDS011;7247;53.330;-1.180;2023-06-14T02:32:39;11.20;;;8.17;;
14326;SDS011;7247;53.330;-1.180;2023-06-14T02:35:08;11.23;;;8.20;;
14326;SDS011;7247;53.330;-1.180;2023-06-14T02:37:34;15.50;;;7.33;;
14326;SDS011;7247;53.330;-1.180;2023-06-14T02:40:01;10.07;;;7.07;;
14326;SDS011;7247;53.330;-1.180;2023-06-14T02:42:27;9.87;;;7.00;;
14326;SDS011;7247;53.330;-1.180;2023-06-14T02:44:53;10.67;;;6.93;;
14326;SDS011;7247;53.330;-1.180;2023-06-14T02:47:20;12.27;;;7.07;;
14326;SDS011;7247;53.330;-1.180;2023-06-14T02:49:48;10.70;;;6.53;;
14326;SDS011;7247;53.330;-1.180;2023-06-14T02:52:14;14.33;;;6.67;;
14326;SDS011;7247;53.330;-1.180;2023-06-14T02:54:40;12.07;;;6.63;;
14326;SDS011;7247;53.330;-1.180;2023-06-14T02:57:07;9.73;;;5.83;;
14326;SDS011;7247;53.330;-1.180;2023-06-14T02:59:34;9.37;;;5.90;;
14326;SDS011;7247;53.330;-1.180;2023-06-14T03:02:00;8.07;;;5.33;;
14326;SDS011;7247;53.330;-1.180;2023-06-14T03:04:28;9.43;;;5.77;;
14326;SDS011;7247;53.330;-1.180;2023-06-14T03:06:55;9.80;;;5.80;;
14326;SDS011;7247;53.330;-1.180;2023-06-14T03:09:22;9.80;;;6.10;;
14326;SDS011;7247;53.330;-1.180;2023-06-14T03:11:49;9.40;;;5.53;;
14326;SDS011;7247;53.330;-1.180;2023-06-14T03:14:15;9.60;;;5.80;;
14326;SDS011;7247;53.330;-1.180;2023-06-14T03:16:43;8.80;;;6.00;;
14326;SDS011;7247;53.330;-1.180;2023-06-14T03:19:10;11.20;;;6.27;;
14326;SDS011;7247;53.330;-1.180;2023-06-14T03:21:36;8.87;;;6.00;;
14326;SDS011;7247;53.330;-1.180;2023-06-14T03:24:05;10.10;;;6.17;;
14326;SDS011;7247;53.330;-1.180;2023-06-14T03:26:32;9.23;;;6.17;;
14326;SDS011;7247;53.330;-1.180;2023-06-14T03:28:59;7.77;;;5.77;;
14326;SDS011;7247;53.330;-1.180;2023-06-14T03:31:25;9.40;;;6.03;;
14326;SDS011;7247;53.330;-1.180;2023-06-14T03:33:52;9.97;;;6.17;;
14326;SDS011;7247;53.330;-1.180;2023-06-14T03:36:18;8.50;;;5.90;;
14326;SDS011;7247;53.330;-1.180;2023-06-14T03:38:45;13.80;;;6.73;;
14326;SDS011;7247;53.330;-1.180;2023-06-14T03:41:13;10.33;;;6.33;;
14326;SDS011;7247;53.330;-1.180;2023-06-14T03:43:39;9.20;;;6.60;;
14326;SDS011;7247;53.330;-1.180;2023-06-14T03:46:05;7.90;;;6.30;;
14326;SDS011;7247;53.330;-1.180;2023-06-14T03:48:32;10.50;;;6.30;;
14326;SDS011;7247;53.330;-1.180;2023-06-14T03:50:58;12.90;;;6.83;;
14326;SDS011;7247;53.330;-1.180;2023-06-14T03:53:25;10.27;;;6.23;;
14326;SDS011;7247;53.330;-1.180;2023-06-14T03:55:53;9.40;;;6.20;;
14326;SDS011;7247;53.330;-1.180;2023-06-14T03:58:21;10.10;;;6.37;;
14326;SDS011;7247;53.330;-1.180;2023-06-14T04:00:47;9.50;;;6.07;;
14326;SDS011;7247;53.330;-1.180;2023-06-14T04:03:13;7.73;;;5.93;;
14326;SDS011;7247;53.330;-1.180;2023-06-14T04:05:40;7.60;;;5.53;;
14326;SDS011;7247;53.330;-1.180;2023-06-14T04:08:07;8.23;;;5.77;;
14326;SDS011;7247;53.330;-1.180;2023-06-14T04:10:34;8.40;;;6.40;;
14326;SDS011;7247;53.330;-1.180;2023-06-14T04:13:00;8.03;;;5.97;;
14326;SDS011;7247;53.330;-1.180;2023-06-14T04:15:28;11.93;;;5.77;;
14326;SDS011;7247;53.330;-1.180;2023-06-14T04:17:54;14.87;;;6.53;;
14326;SDS011;7247;53.330;-1.180;2023-06-14T04:20:22;8.97;;;5.83;;
14326;SDS011;7247;53.330;-1.180;2023-06-14T04:22:49;8.53;;;6.13;;
14326;SDS011;7247;53.330;-1.180;2023-06-14T04:25:15;8.40;;;5.90;;
14326;SDS011;7247;53.330;-1.180;2023-06-14T04:27:43;7.27;;;5.43;;
14326;SDS011;7247;53.330;-1.180;2023-06-14T04:30:09;11.90;;;5.87;;
14326;SDS011;7247;53.330;-1.180;2023-06-14T04:32:37;7.60;;;5.33;;
14326;SDS011;7247;53.330;-1.180;2023-06-14T04:35:05;6.73;;;5.23;;
14326;SDS011;7247;53.330;-1.180;2023-06-14T04:37:31;10.63;;;5.73;;
14326;SDS011;7247;53.330;-1.180;2023-06-14T04:39:58;11.23;;;5.40;;
14326;SDS011;7247;53.330;-1.180;2023-06-14T04:42:25;7.67;;;5.70;;
14326;SDS011;7247;53.330;-1.180;2023-06-14T04:44:56;9.47;;;5.40;;
14326;SDS011;7247;53.330;-1.180;2023-06-14T04:47:22;9.60;;;5.17;;
14326;SDS011;7247;53.330;-1.180;2023-06-14T04:49:51;10.03;;;5.83;;
14326;SDS011;7247;53.330;-1.180;2023-06-14T04:52:18;9.23;;;5.13;;
14326;SDS011;7247;53.330;-1.180;2023-06-14T04:54:46;8.80;;;5.07;;
14326;SDS011;7247;53.330;-1.180;2023-06-14T04:57:12;10.07;;;5.20;;
14326;SDS011;7247;53.330;-1.180;2023-06-14T04:59:42;9.93;;;4.90;;
14326;SDS011;7247;53.330;-1.180;2023-06-14T05:02:09;10.67;;;4.70;;
14326;SDS011;7247;53.330;-1.180;2023-06-14T05:04:36;7.53;;;4.90;;
14326;SDS011;7247;53.330;-1.180;2023-06-14T05:07:06;9.80;;;5.20;;
14326;SDS011;7247;53.330;-1.180;2023-06-14T05:09:33;8.60;;;5.20;;
14326;SDS011;7247;53.330;-1.180;2023-06-14T05:11:59;11.93;;;5.07;;
14326;SDS011;7247;53.330;-1.180;2023-06-14T05:14:26;7.73;;;5.00;;
14326;SDS011;7247;53.330;-1.180;2023-06-14T05:16:52;7.93;;;5.10;;
14326;SDS011;7247;53.330;-1.180;2023-06-14T05:19:19;9.40;;;5.07;;
14326;SDS011;7247;53.330;-1.180;2023-06-14T05:21:47;9.70;;;5.00;;
14326;SDS011;7247;53.330;-1.180;2023-06-14T05:24:15;11.43;;;5.00;;
14326;SDS011;7247;53.330;-1.180;2023-06-14T05:26:43;8.63;;;4.63;;
14326;SDS011;7247;53.330;-1.180;2023-06-14T05:29:09;7.50;;;4.83;;
14326;SDS011;7247;53.330;-1.180;2023-06-14T05:31:36;7.37;;;4.77;;
14326;SDS011;7247;53.330;-1.180;2023-06-14T05:34:03;8.97;;;4.70;;
14326;SDS011;7247;53.330;-1.180;2023-06-14T05:36:29;6.03;;;4.73;;
14326;SDS011;7247;53.330;-1.180;2023-06-14T05:38:55;7.80;;;5.10;;
14326;SDS011;7247;53.330;-1.180;2023-06-14T05:41:26;8.20;;;4.77;;
14326;SDS011;7247;53.330;-1.180;2023-06-14T05:43:53;7.17;;;4.50;;
14326;SDS011;7247;53.330;-1.180;2023-06-14T05:46:20;8.63;;;5.17;;
14326;SDS011;7247;53.330;-1.180;2023-06-14T05:48:49;7.80;;;4.40;;
14326;SDS011;7247;53.330;-1.180;2023-06-14T05:51:16;8.00;;;4.73;;
14326;SDS011;7247;53.330;-1.180;2023-06-14T05:53:44;7.77;;;5.00;;
14326;SDS011;7247;53.330;-1.180;2023-06-14T05:56:10;9.03;;;5.10;;
14326;SDS011;7247;53.330;-1.180;2023-06-14T05:58:38;11.30;;;4.83;;
14326;SDS011;7247;53.330;-1.180;2023-06-14T06:01:04;9.53;;;4.80;;
14326;SDS011;7247;53.330;-1.180;2023-06-14T06:03:31;7.30;;;4.60;;
14326;SDS011;7247;53.330;-1.180;2023-06-14T06:05:57;8.17;;;4.87;;
14326;SDS011;7247;53.330;-1.180;2023-06-14T06:08:24;7.77;;;5.10;;
14326;SDS011;7247;53.330;-1.180;2023-06-14T06:10:50;9.73;;;5.03;;
14326;SDS011;7247;53.330;-1.180;2023-06-14T06:13:16;7.13;;;4.73;;
14326;SDS011;7247;53.330;-1.180;2023-06-14T06:15:44;7.60;;;4.83;;
14326;SDS011;7247;53.330;-1.180;2023-06-14T06:18:11;10.17;;;4.87;;
14326;SDS011;7247;53.330;-1.180;2023-06-14T06:20:37;10.83;;;4.80;;
14326;SDS011;7247;53.330;-1.180;2023-06-14T06:23:04;9.37;;;4.30;;
14326;SDS011;7247;53.330;-1.180;2023-06-14T06:25:30;8.27;;;4.33;;
14326;SDS011;7247;53.330;-1.180;2023-06-14T06:27:57;8.40;;;4.30;;
14326;SDS011;7247;53.330;-1.180;2023-06-14T06:30:23;9.37;;;5.17;;
14326;SDS011;7247;53.330;-1.180;2023-06-14T06:32:51;6.33;;;4.70;;
14326;SDS011;7247;53.330;-1.180;2023-06-14T06:35:18;8.00;;;4.40;;
14326;SDS011;7247;53.330;-1.180;2023-06-14T06:37:44;10.30;;;4.50;;
14326;SDS011;7247;53.330;-1.180;2023-06-14T06:40:11;11.07;;;4.30;;
14326;SDS011;7247;53.330;-1.180;2023-06-14T06:42:37;9.67;;;4.53;;
14326;SDS011;7247;53.330;-1.180;2023-06-14T06:45:04;7.97;;;4.20;;
14326;SDS011;7247;53.330;-1.180;2023-06-14T06:47:31;6.07;;;4.03;;
14326;SDS011;7247;53.330;-1.180;2023-06-14T06:49:59;7.33;;;4.10;;
14326;SDS011;7247;53.330;-1.180;2023-06-14T06:52:25;8.37;;;4.60;;
14326;SDS011;7247;53.330;-1.180;2023-06-14T06:54:52;6.80;;;4.17;;
14326;SDS011;7247;53.330;-1.180;2023-06-14T06:57:20;7.33;;;4.00;;
14326;SDS011;7247;53.330;-1.180;2023-06-14T06:59:47;5.83;;;3.63;;
14326;SDS011;7247;53.330;-1.180;2023-06-14T07:02:14;10.53;;;4.10;;
14326;SDS011;7247;53.330;-1.180;2023-06-14T07:04:40;9.10;;;3.97;;
14326;SDS011;7247;53.330;-1.180;2023-06-14T07:07:08;8.17;;;3.90;;
14326;SDS011;7247;53.330;-1.180;2023-06-14T07:09:34;7.63;;;3.73;;
14326;SDS011;7247;53.330;-1.180;2023-06-14T07:12:01;9.73;;;3.93;;
14326;SDS011;7247;53.330;-1.180;2023-06-14T07:14:27;7.50;;;3.97;;
14326;SDS011;7247;53.330;-1.180;2023-06-14T07:16:55;9.07;;;3.93;;
14326;SDS011;7247;53.330;-1.180;2023-06-14T07:19:21;11.00;;;3.93;;
14326;SDS011;7247;53.330;-1.180;2023-06-14T07:21:48;11.10;;;4.37;;
14326;SDS011;7247;53.330;-1.180;2023-06-14T07:24:15;9.23;;;4.30;;
14326;SDS011;7247;53.330;-1.180;2023-06-14T07:26:42;10.93;;;4.23;;
14326;SDS011;7247;53.330;-1.180;2023-06-14T07:29:08;12.77;;;4.43;;
14326;SDS011;7247;53.330;-1.180;2023-06-14T07:31:35;11.67;;;4.30;;
14326;SDS011;7247;53.330;-1.180;2023-06-14T07:34:01;11.43;;;4.00;;
14326;SDS011;7247;53.330;-1.180;2023-06-14T07:36:28;10.47;;;3.80;;
14326;SDS011;7247;53.330;-1.180;2023-06-14T07:38:54;8.40;;;4.17;;
14326;SDS011;7247;53.330;-1.180;2023-06-14T07:41:22;14.43;;;3.97;;
14326;SDS011;7247;53.330;-1.180;2023-06-14T07:43:49;13.53;;;4.27;;
14326;SDS011;7247;53.330;-1.180;2023-06-14T07:46:15;10.50;;;4.07;;
14326;SDS011;7247;53.330;-1.180;2023-06-14T07:48:41;9.27;;;3.93;;
14326;SDS011;7247;53.330;-1.180;2023-06-14T07:51:08;16.03;;;4.50;;
14326;SDS011;7247;53.330;-1.180;2023-06-14T07:53:34;10.77;;;4.00;;
14326;SDS011;7247;53.330;-1.180;2023-06-14T07:56:01;17.77;;;4.40;;
14326;SDS011;7247;53.330;-1.180;2023-06-14T07:58:29;9.90;;;4.20;;
14326;SDS011;7247;53.330;-1.180;2023-06-14T08:00:55;8.07;;;3.97;;
14326;SDS011;7247;53.330;-1.180;2023-06-14T08:03:22;12.03;;;4.27;;
14326;SDS011;7247;53.330;-1.180;2023-06-14T08:05:49;10.43;;;4.10;;
14326;SDS011;7247;53.330;-1.180;2023-06-14T08:08:16;8.63;;;3.87;;
14326;SDS011;7247;53.330;-1.180;2023-06-14T08:10:42;12.67;;;4.17;;
14326;SDS011;7247;53.330;-1.180;2023-06-14T08:13:09;10.40;;;3.83;;
14326;SDS011;7247;53.330;-1.180;2023-06-14T08:15:37;11.03;;;4.20;;
14326;SDS011;7247;53.330;-1.180;2023-06-14T08:18:03;8.40;;;3.93;;
14326;SDS011;7247;53.330;-1.180;2023-06-14T08:20:30;9.30;;;4.00;;
14326;SDS011;7247;53.330;-1.180;2023-06-14T08:22:57;12.23;;;4.10;;
14326;SDS011;7247;53.330;-1.180;2023-06-14T08:25:23;9.33;;;3.67;;
14326;SDS011;7247;53.330;-1.180;2023-06-14T08:27:50;10.53;;;3.80;;
14326;SDS011;7247;53.330;-1.180;2023-06-14T08:30:16;7.73;;;3.60;;
14326;SDS011;7247;53.330;-1.180;2023-06-14T08:32:44;14.33;;;3.77;;
14326;SDS011;7247;53.330;-1.180;2023-06-14T08:35:11;7.93;;;3.70;;
14326;SDS011;7247;53.330;-1.180;2023-06-14T08:37:40;8.87;;;3.53;;
14326;SDS011;7247;53.330;-1.180;2023-06-14T08:40:08;8.30;;;3.40;;
14326;SDS011;7247;53.330;-1.180;2023-06-14T08:42:42;9.77;;;3.90;;
14326;SDS011;7247;53.330;-1.180;2023-06-14T08:45:08;8.93;;;3.60;;
14326;SDS011;7247;53.330;-1.180;2023-06-14T08:47:35;8.17;;;3.57;;
14326;SDS011;7247;53.330;-1.180;2023-06-14T08:50:03;9.33;;;3.30;;
14326;SDS011;7247;53.330;-1.180;2023-06-14T08:52:31;9.27;;;3.03;;
14326;SDS011;7247;53.330;-1.180;2023-06-14T08:54:59;8.27;;;3.43;;
14326;SDS011;7247;53.330;-1.180;2023-06-14T08:57:27;8.90;;;3.70;;
14326;SDS011;7247;53.330;-1.180;2023-06-14T08:59:55;9.67;;;3.93;;
14326;SDS011;7247;53.330;-1.180;2023-06-14T09:02:22;9.97;;;3.57;;
14326;SDS011;7247;53.330;-1.180;2023-06-14T09:04:50;8.70;;;3.47;;
14326;SDS011;7247;53.330;-1.180;2023-06-14T09:07:18;7.33;;;3.20;;
14326;SDS011;7247;53.330;-1.180;2023-06-14T09:09:44;8.60;;;3.20;;
14326;SDS011;7247;53.330;-1.180;2023-06-14T09:12:11;6.83;;;3.40;;
14326;SDS011;7247;53.330;-1.180;2023-06-14T09:14:37;6.70;;;3.57;;
14326;SDS011;7247;53.330;-1.180;2023-06-14T09:17:07;9.70;;;3.20;;
14326;SDS011;7247;53.330;-1.180;2023-06-14T09:19:33;7.57;;;2.90;;
14326;SDS011;7247;53.330;-1.180;2023-06-14T09:22:00;8.90;;;3.37;;
14326;SDS011;7247;53.330;-1.180;2023-06-14T09:24:27;9.53;;;3.27;;
14326;SDS011;7247;53.330;-1.180;2023-06-14T09:26:54;11.53;;;3.50;;
14326;SDS011;7247;53.330;-1.180;2023-06-14T09:29:20;10.07;;;3.40;;
14326;SDS011;7247;53.330;-1.180;2023-06-14T09:31:47;11.67;;;3.47;;
14326;SDS011;7247;53.330;-1.180;2023-06-14T09:34:13;7.97;;;3.10;;
14326;SDS011;7247;53.330;-1.180;2023-06-14T09:36:43;7.07;;;2.80;;
14326;SDS011;7247;53.330;-1.180;2023-06-14T09:39:09;7.10;;;2.93;;
14326;SDS011;7247;53.330;-1.180;2023-06-14T09:41:37;7.53;;;3.13;;
14326;SDS011;7247;53.330;-1.180;2023-06-14T09:44:05;8.43;;;3.20;;
14326;SDS011;7247;53.330;-1.180;2023-06-14T09:46:32;5.33;;;2.97;;
14326;SDS011;7247;53.330;-1.180;2023-06-14T09:48:59;6.77;;;2.80;;
14326;SDS011;7247;53.330;-1.180;2023-06-14T09:51:26;7.07;;;2.83;;
14326;SDS011;7247;53.330;-1.180;2023-06-14T09:53:53;8.97;;;3.23;;
14326;SDS011;7247;53.330;-1.180;2023-06-14T09:56:22;8.97;;;2.90;;
14326;SDS011;7247;53.330;-1.180;2023-06-14T09:58:51;5.90;;;2.67;;
14326;SDS011;7247;53.330;-1.180;2023-06-14T10:01:19;8.20;;;2.57;;
14326;SDS011;7247;53.330;-1.180;2023-06-14T10:03:46;7.17;;;2.70;;
14326;SDS011;7247;53.330;-1.180;2023-06-14T10:06:14;7.57;;;2.60;;
14326;SDS011;7247;53.330;-1.180;2023-06-14T10:08:40;7.43;;;2.80;;
14326;SDS011;7247;53.330;-1.180;2023-06-14T10:11:07;6.77;;;2.70;;
14326;SDS011;7247;53.330;-1.180;2023-06-14T10:13:34;6.23;;;2.90;;
14326;SDS011;7247;53.330;-1.180;2023-06-14T10:16:05;7.47;;;3.00;;
14326;SDS011;7247;53.330;-1.180;2023-06-14T10:18:35;8.20;;;3.47;;
14326;SDS011;7247;53.330;-1.180;2023-06-14T10:21:04;7.27;;;3.30;;
14326;SDS011;7247;53.330;-1.180;2023-06-14T10:23:34;8.00;;;3.00;;
14326;SDS011;7247;53.330;-1.180;2023-06-14T10:26:01;5.10;;;3.07;;
14326;SDS011;7247;53.330;-1.180;2023-06-14T10:28:28;6.37;;;2.77;;
14326;SDS011;7247;53.330;-1.180;2023-06-14T10:31:03;6.80;;;2.83;;
14326;SDS011;7247;53.330;-1.180;2023-06-14T10:33:30;6.77;;;2.97;;
14326;SDS011;7247;53.330;-1.180;2023-06-14T10:36:06;6.67;;;3.07;;
14326;SDS011;7247;53.330;-1.180;2023-06-14T10:38:33;7.13;;;2.83;;
14326;SDS011;7247;53.330;-1.180;2023-06-14T10:41:00;7.33;;;3.10;;
14326;SDS011;7247;53.330;-1.180;2023-06-14T10:43:27;4.13;;;2.60;;
14326;SDS011;7247;53.330;-1.180;2023-06-14T10:46:15;7.03;;;2.50;;
14326;SDS011;7247;53.330;-1.180;2023-06-14T10:48:41;6.83;;;2.80;;
14326;SDS011;7247;53.330;-1.180;2023-06-14T10:51:15;6.07;;;2.90;;
14326;SDS011;7247;53.330;-1.180;2023-06-14T10:53:45;7.80;;;2.70;;
14326;SDS011;7247;53.330;-1.180;2023-06-14T10:56:20;5.75;;;2.60;;
14326;SDS011;7247;53.330;-1.180;2023-06-14T10:58:49;4.28;;;2.60;;
14326;SDS011;7247;53.330;-1.180;2023-06-14T11:01:18;5.20;;;2.85;;
14326;SDS011;7247;53.330;-1.180;2023-06-14T11:03:50;4.95;;;2.60;;
14326;SDS011;7247;53.330;-1.180;2023-06-14T11:06:19;4.35;;;2.60;;
14326;SDS011;7247;53.330;-1.180;2023-06-14T11:08:56;4.00;;;2.58;;
14326;SDS011;7247;53.330;-1.180;2023-06-14T11:11:29;10.57;;;3.40;;
14326;SDS011;7247;53.330;-1.180;2023-06-14T11:13:57;7.72;;;2.80;;
14326;SDS011;7247;53.330;-1.180;2023-06-14T11:16:27;4.88;;;2.80;;
14326;SDS011;7247;53.330;-1.180;2023-06-14T11:18:54;7.47;;;2.50;;
14326;SDS011;7247;53.330;-1.180;2023-06-14T11:21:20;4.22;;;2.60;;
14326;SDS011;7247;53.330;-1.180;2023-06-14T11:23:50;6.32;;;2.75;;
14326;SDS011;7247;53.330;-1.180;2023-06-14T11:26:24;4.82;;;2.63;;
14326;SDS011;7247;53.330;-1.180;2023-06-14T11:28:54;5.47;;;2.70;;
14326;SDS011;7247;53.330;-1.180;2023-06-14T11:31:21;7.45;;;2.60;;
14326;SDS011;7247;53.330;-1.180;2023-06-14T11:33:50;6.53;;;2.75;;
14326;SDS011;7247;53.330;-1.180;2023-06-14T11:36:16;10.63;;;3.28;;
14326;SDS011;7247;53.330;-1.180;2023-06-14T11:38:43;7.00;;;3.13;;
14326;SDS011;7247;53.330;-1.180;2023-06-14T11:41:10;4.50;;;2.47;;
14326;SDS011;7247;53.330;-1.180;2023-06-14T11:43:36;4.78;;;2.67;;
14326;SDS011;7247;53.330;-1.180;2023-06-14T11:46:02;5.05;;;2.80;;
14326;SDS011;7247;53.330;-1.180;2023-06-14T11:48:36;5.22;;;2.78;;
14326;SDS011;7247;53.330;-1.180;2023-06-14T11:51:03;3.97;;;2.55;;
14326;SDS011;7247;53.330;-1.180;2023-06-14T11:53:30;3.17;;;2.30;;
14326;SDS011;7247;53.330;-1.180;2023-06-14T11:55:57;7.72;;;2.75;;
14326;SDS011;7247;53.330;-1.180;2023-06-14T11:58:23;5.85;;;2.80;;
14326;SDS011;7247;53.330;-1.180;2023-06-14T12:00:49;4.38;;;2.70;;
14326;SDS011;7247;53.330;-1.180;2023-06-14T12:03:16;4.07;;;2.53;;
14326;SDS011;7247;53.330;-1.180;2023-06-14T12:05:42;5.15;;;2.70;;
14326;SDS011;7247;53.330;-1.180;2023-06-14T12:08:10;3.72;;;2.47;;
14326;SDS011;7247;53.330;-1.180;2023-06-14T12:10:41;6.72;;;3.03;;
14326;SDS011;7247;53.330;-1.180;2023-06-14T12:13:09;7.78;;;3.00;;
14326;SDS011;7247;53.330;-1.180;2023-06-14T12:15:35;5.70;;;2.88;;
14326;SDS011;7247;53.330;-1.180;2023-06-14T12:18:04;6.78;;;3.20;;
14326;SDS011;7247;53.330;-1.180;2023-06-14T12:20:31;4.57;;;2.85;;
14326;SDS011;7247;53.330;-1.180;2023-06-14T12:22:59;9.88;;;2.80;;
14326;SDS011;7247;53.330;-1.180;2023-06-14T12:25:28;8.27;;;3.10;;
14326;SDS011;7247;53.330;-1.180;2023-06-14T12:27:56;6.18;;;2.50;;
14326;SDS011;7247;53.330;-1.180;2023-06-14T12:30:22;5.90;;;3.00;;
14326;SDS011;7247;53.330;-1.180;2023-06-14T12:32:49;5.65;;;2.83;;
14326;SDS011;7247;53.330;-1.180;2023-06-14T12:35:16;3.25;;;2.60;;
14326;SDS011;7247;53.330;-1.180;2023-06-14T12:37:43;5.53;;;2.65;;
14326;SDS011;7247;53.330;-1.180;2023-06-14T12:40:10;4.82;;;2.83;;
14326;SDS011;7247;53.330;-1.180;2023-06-14T12:42:38;6.47;;;2.50;;
14326;SDS011;7247;53.330;-1.180;2023-06-14T12:45:04;6.88;;;3.05;;
14326;SDS011;7247;53.330;-1.180;2023-06-14T12:47:31;7.82;;;2.80;;
14326;SDS011;7247;53.330;-1.180;2023-06-14T12:49:57;5.72;;;2.80;;
14326;SDS011;7247;53.330;-1.180;2023-06-14T12:52:24;6.32;;;2.60;;
14326;SDS011;7247;53.330;-1.180;2023-06-14T12:54:50;6.75;;;2.80;;
14326;SDS011;7247;53.330;-1.180;2023-06-14T12:57:16;5.70;;;2.53;;
14326;SDS011;7247;53.330;-1.180;2023-06-14T12:59:44;8.63;;;2.88;;
14326;SDS011;7247;53.330;-1.180;2023-06-14T13:02:12;4.60;;;2.47;;
14326;SDS011;7247;53.330;-1.180;2023-06-14T13:04:38;4.03;;;2.45;;
14326;SDS011;7247;53.330;-1.180;2023-06-14T13:07:05;5.35;;;3.00;;
14326;SDS011;7247;53.330;-1.180;2023-06-14T13:09:31;7.43;;;2.75;;
14326;SDS011;7247;53.330;-1.180;2023-06-14T13:11:58;5.22;;;2.45;;
14326;SDS011;7247;53.330;-1.180;2023-06-14T13:14:24;5.22;;;2.75;;
14326;SDS011;7247;53.330;-1.180;2023-06-14T13:16:52;4.38;;;2.47;;
14326;SDS011;7247;53.330;-1.180;2023-06-14T13:19:18;4.90;;;2.88;;
14326;SDS011;7247;53.330;-1.180;2023-06-14T13:21:45;10.93;;;2.50;;
14326;SDS011;7247;53.330;-1.180;2023-06-14T13:24:11;2.90;;;2.40;;
14326;SDS011;7247;53.330;-1.180;2023-06-14T13:26:38;6.32;;;2.55;;
14326;SDS011;7247;53.330;-1.180;2023-06-14T13:29:04;5.65;;;2.47;;
14326;SDS011;7247;53.330;-1.180;2023-06-14T13:31:30;7.07;;;2.70;;
14326;SDS011;7247;53.330;-1.180;2023-06-14T13:33:58;7.95;;;2.97;;
14326;SDS011;7247;53.330;-1.180;2023-06-14T13:36:25;3.60;;;2.35;;
14326;SDS011;7247;53.330;-1.180;2023-06-14T13:38:51;6.25;;;2.30;;
14326;SDS011;7247;53.330;-1.180;2023-06-14T13:41:20;6.95;;;2.50;;
14326;SDS011;7247;53.330;-1.180;2023-06-14T13:43:46;3.20;;;2.40;;
14326;SDS011;7247;53.330;-1.180;2023-06-14T13:46:12;5.10;;;2.30;;
14326;SDS011;7247;53.330;-1.180;2023-06-14T13:48:39;5.63;;;2.40;;
14326;SDS011;7247;53.330;-1.180;2023-06-14T13:51:06;2.58;;;2.05;;
14326;SDS011;7247;53.330;-1.180;2023-06-14T13:53:33;4.47;;;1.92;;
14326;SDS011;7247;53.330;-1.180;2023-06-14T13:55:59;3.67;;;2.40;;
14326;SDS011;7247;53.330;-1.180;2023-06-14T13:58:26;10.50;;;3.35;;
14326;SDS011;7247;53.330;-1.180;2023-06-14T14:00:52;7.22;;;2.50;;
14326;SDS011;7247;53.330;-1.180;2023-06-14T14:03:19;4.32;;;2.47;;
14326;SDS011;7247;53.330;-1.180;2023-06-14T14:05:46;7.68;;;2.30;;
14326;SDS011;7247;53.330;-1.180;2023-06-14T14:08:14;5.10;;;2.40;;
14326;SDS011;7247;53.330;-1.180;2023-06-14T14:10:40;5.03;;;2.25;;
14326;SDS011;7247;53.330;-1.180;2023-06-14T14:13:07;3.58;;;2.10;;
14326;SDS011;7247;53.330;-1.180;2023-06-14T14:15:33;8.43;;;2.67;;
14326;SDS011;7247;53.330;-1.180;2023-06-14T14:18:00;3.05;;;2.28;;
14326;SDS011;7247;53.330;-1.180;2023-06-14T14:20:29;4.22;;;2.85;;
14326;SDS011;7247;53.330;-1.180;2023-06-14T14:22:56;5.68;;;2.50;;
14326;SDS011;7247;53.330;-1.180;2023-06-14T14:25:23;6.80;;;2.63;;
14326;SDS011;7247;53.330;-1.180;2023-06-14T14:27:50;4.05;;;2.40;;
14326;SDS011;7247;53.330;-1.180;2023-06-14T14:30:17;4.30;;;2.55;;
14326;SDS011;7247;53.330;-1.180;2023-06-14T14:32:48;3.58;;;2.35;;
14326;SDS011;7247;53.330;-1.180;2023-06-14T14:35:15;2.88;;;2.10;;
14326;SDS011;7247;53.330;-1.180;2023-06-14T14:37:41;5.35;;;2.35;;
14326;SDS011;7247;53.330;-1.180;2023-06-14T14:40:08;6.20;;;2.60;;
14326;SDS011;7247;53.330;-1.180;2023-06-14T14:42:36;5.80;;;2.92;;